Terminal Aerodrome Forecast
Issued by NWS Duluth, MN

Home | Current Version | Previous Version | Text Only | Print | Product List | Glossary On
Versions: 1 2 3 4 5 6 7 8 9 10 11 12 13 14 15 16 17 18 19 20 21 22 23 24 25 26 27 28 29 30 31 32 33 34
000
FTUS43 KDLH 210500
TAFDLH
TAF
KDLH 210534Z 2106/2206 30013G23KT 6SM -SN BKN014 OVC025
      TEMPO 2106/2108 3SM -SN SCT014 OVC025
     FM210800 29015G24KT 6SM -SN BKN016 OVC030
     FM211300 30016G25KT P6SM -SN BKN016 OVC030
     FM211800 32018G28KT P6SM -SN BKN025 OVC040 PROB30 2119/2123 3SM
      -SHSN OVC015
     FM220300 31014G24KT P6SM BKN030=

USA.gov is the U.S. government's official web portal to all federal, state and local government web resources and services.